Time;durP1;ratioP1;P1;durP2;ratioP2;P2;SDS_P1;SDS_P2;PMS_P1;PMS_P2;Temp;Humidity;BMP_temperature;BMP_pressure;BME280_temperature;BME280_humidity;BME280_pressure;Samples;Min_cycle;Max_cycle;Signal;HPM_P1;HPM_P2
2022/03/02 00:00:19;;;;;;;;;;;;;;;-4.79;100.00;96568.69;1031044;28;19918;-72
2022/03/02 00:00:49;;;;;;;;;;;;;;;-4.81;100.00;96570.56;1031140;28;19924;-73
2022/03/02 00:01:20;;;;;;;;;;;;;;;-4.82;100.00;96563.84;1030430;28;19987;-72
2022/03/02 00:01:50;;;;;;;;;;;;;;;-4.82;100.00;96574.09;1030571;28;19918;-72
2022/03/02 00:02:21;;;;;;;;;;;;;;;-4.77;100.00;96571.88;1030611;28;20511;-72
2022/03/02 00:02:51;;;;;;;;;;;;;;;-4.79;100.00;96571.25;1030839;28;19929;-72
2022/03/02 00:03:21;;;;;;;;;;;;;;;-4.80;100.00;96570.41;1032209;28;20049;-72
2022/03/02 00:03:51;;;;;;;;;;;;;;;-4.77;100.00;96570.13;1038880;28;19932;-73
2022/03/02 00:04:22;;;;;;;;;;;;;;;-4.75;100.00;96575.13;1038875;28;19983;-72
2022/03/02 00:04:52;;;;;;;;;;;;;;;-4.78;100.00;96575.41;1035069;28;20282;-70
2022/03/02 00:05:24;;;;;;;;;;;;;;;-4.76;100.00;96576.06;1043039;28;19921;-71
2022/03/02 00:05:54;;;;;;;;;;;;;;;-4.77;100.00;96574.44;1038966;28;19960;-71
2022/03/02 00:06:25;;;;;;;;;;;;;;;-4.76;100.00;96576.06;1036990;28;19959;-70
2022/03/02 00:06:55;;;;;;;;;;;;;;;-4.79;100.00;96573.81;1038752;28;19921;-71
2022/03/02 00:07:25;;;;;;;;;;;;;;;-4.76;100.00;96578.63;1034439;28;20321;-72
2022/03/02 00:07:55;;;;;;;;;;;;;;;-4.78;100.00;96580.53;1038087;28;19963;-71
2022/03/02 00:08:28;;;;;;;;;;;;;;;-4.80;100.00;96582.41;1037545;28;19929;-71
2022/03/02 00:08:59;;;;;;;;;;;;;;;-4.80;100.00;96583.22;1035222;28;19922;-70
2022/03/02 00:09:29;;;;;;;;;;;;;;;-4.83;100.00;96580.97;1038205;28;19913;-72
2022/03/02 00:10:00;;;;;;;;;;;;;;;-4.87;100.00;96581.38;1039231;28;19921;-72
2022/03/02 00:10:30;;;;;;;;;;;;;;;-4.85;100.00;96589.72;1042962;28;20475;-70
2022/03/02 00:11:00;;;;;;;;;;;;;;;-4.90;100.00;96587.59;1043226;28;19913;-72
2022/03/02 00:11:31;;;;;;;;;;;;;;;-4.92;100.00;96578.47;1037290;28;19928;-72
2022/03/02 00:12:01;;;;;;;;;;;;;;;-4.92;100.00;96588.72;1039837;28;19921;-71
2022/03/02 00:12:31;;;;;;;;;;;;;;;-4.90;100.00;96581.69;1036492;28;19971;-71
2022/03/02 00:13:02;;;;;;;;;;;;;;;-4.92;100.00;96583.59;1032833;28;20311;-72
2022/03/02 00:13:32;;;;;;;;;;;;;;;-4.86;100.00;96583.00;1033570;28;19926;-72
2022/03/02 00:14:03;;;;;;;;;;;;;;;-4.80;100.00;96582.41;1027610;28;19965;-72
2022/03/02 00:14:34;;;;;;;;;;;;;;;-4.75;100.00;96580.22;1027822;28;19929;-71
2022/03/02 00:15:04;;;;;;;;;;;;;;;-4.66;100.00;96575.97;1027216;28;19929;-72
2022/03/02 00:15:34;;;;;;;;;;;;;;;-4.63;100.00;96576.47;1035600;28;19981;-70
2022/03/02 00:16:05;;;;;;;;;;;;;;;-4.54;100.00;96574.81;1034377;28;20441;-68
2022/03/02 00:16:35;;;;;;;;;;;;;;;-4.57;100.00;96575.91;1030197;28;19921;-71
2022/03/02 00:17:05;;;;;;;;;;;;;;;-4.57;100.00;96575.91;1032593;28;19926;-72
2022/03/02 00:17:36;;;;;;;;;;;;;;;-4.62;100.00;96573.00;1027761;28;19949;-72
2022/03/02 00:18:06;;;;;;;;;;;;;;;-4.60;100.00;96570.28;1035609;28;19922;-71
2022/03/02 00:18:36;;;;;;;;;;;;;;;-4.67;100.00;96569.25;1035294;28;19933;-71
2022/03/02 00:19:08;;;;;;;;;;;;;;;-4.68;100.00;96568.44;1035371;28;19988;-72
2022/03/02 00:19:38;;;;;;;;;;;;;;;-4.69;100.00;96564.28;1034978;28;19921;-72
2022/03/02 00:20:08;;;;;;;;;;;;;;;-4.66;100.00;96565.72;1034892;28;19921;-72
2022/03/02 00:20:39;;;;;;;;;;;;;;;-4.62;100.00;96569.63;1035661;28;20370;-72
2022/03/02 00:21:12;;;;;;;;;;;;;;;-4.63;100.00;96573.91;1037032;28;19928;-72
2022/03/02 00:21:42;;;;;;;;;;;;;;;-4.65;100.00;96570.72;1039534;28;19924;-71
2022/03/02 00:22:12;;;;;;;;;;;;;;;-4.65;100.00;96570.72;1033167;28;19950;-71
2022/03/02 00:22:42;;;;;;;;;;;;;;;-4.63;100.00;96573.91;1027305;28;19993;-72
2022/03/02 00:23:13;;;;;;;;;;;;;;;-4.62;100.00;96574.75;1031183;28;19989;-70
2022/03/02 00:23:43;;;;;;;;;;;;;;;-4.68;100.00;96576.13;1030924;28;19914;-70
2022/03/02 00:24:13;;;;;;;;;;;;;;;-4.68;100.00;96570.22;1041106;28;19955;-70
2022/03/02 00:24:50;;;;;;;;;;;;;;;-4.64;100.00;96572.31;1040333;28;19959;-72
2022/03/02 00:25:20;;;;;;;;;;;;;;;-4.68;100.00;96576.13;1039887;28;19920;-71
2022/03/02 00:25:51;;;;;;;;;;;;;;;-4.65;100.00;96570.72;1027593;28;19983;-72
2022/03/02 00:26:21;;;;;;;;;;;;;;;-4.70;100.00;96567.78;1029785;28;19954;-70
2022/03/02 00:26:51;;;;;;;;;;;;;;;-4.69;100.00;96574.53;1035840;28;19936;-72
2022/03/02 00:27:23;;;;;;;;;;;;;;;-4.66;100.00;96571.69;1034348;28;19917;-71
2022/03/02 00:27:54;;;;;;;;;;;;;;;-4.65;100.00;96575.03;1039603;28;20095;-71
2022/03/02 00:28:24;;;;;;;;;;;;;;;-4.72;100.00;96572.25;1039607;28;20008;-71
2022/03/02 00:28:54;;;;;;;;;;;;;;;-4.73;100.00;96570.63;1035500;28;19932;-71
2022/03/02 00:29:25;;;;;;;;;;;;;;;-4.96;100.00;96531.91;1033300;28;20538;-69
2022/03/02 00:29:55;;;;;;;;;;;;;;;-4.75;100.00;96570.00;1035367;28;20043;-73
2022/03/02 00:30:30;;;;;;;;;;;;;;;-4.75;100.00;96575.13;1027327;28;19914;-71
2022/03/02 00:31:00;;;;;;;;;;;;;;;-4.80;100.00;96574.72;1027374;28;20707;-71
2022/03/02 00:31:31;;;;;;;;;;;;;;;-4.85;100.00;96569.25;1028641;28;19921;-70
2022/03/02 00:32:01;;;;;;;;;;;;;;;-4.89;100.00;96567.94;1033390;28;19925;-71
2022/03/02 00:32:31;;;;;;;;;;;;;;;-4.86;100.00;96567.63;1043613;28;19939;-72
2022/03/02 00:33:02;;;;;;;;;;;;;;;-4.84;100.00;96565.75;1043588;28;19917;-72
2022/03/02 00:33:32;;;;;;;;;;;;;;;-4.84;100.00;96568.31;1039452;28;19936;-72
2022/03/02 00:34:02;;;;;;;;;;;;;;;-4.83;100.00;96564.78;1043726;28;20007;-72
2022/03/02 00:34:33;;;;;;;;;;;;;;;-4.82;100.00;96559.53;1039262;28;19951;-73
2022/03/02 00:35:03;;;;;;;;;;;;;;;-4.77;100.00;96561.66;1039682;28;19985;-70
2022/03/02 00:35:34;;;;;;;;;;;;;;;-4.76;100.00;96560.72;1035392;28;19949;-73
2022/03/02 00:36:05;;;;;;;;;;;;;;;-4.77;100.00;96557.31;1027386;28;19921;-70
2022/03/02 00:36:38;;;;;;;;;;;;;;;-4.78;100.00;96553.16;1031235;28;19924;-72
2022/03/02 00:37:08;;;;;;;;;;;;;;;-4.75;100.00;96552.88;1032317;28;19952;-72
2022/03/02 00:37:39;;;;;;;;;;;;;;;-4.77;100.00;96549.66;1031596;28;19917;-71
2022/03/02 00:38:10;;;;;;;;;;;;;;;-4.75;100.00;96552.06;1031798;28;19918;-72
2022/03/02 00:38:41;;;;;;;;;;;;;;;-4.80;100.00;96547.38;1031120;28;19963;-72
2022/03/02 00:39:11;;;;;;;;;;;;;;;-4.71;100.00;96555.16;1031448;28;19992;-73
2022/03/02 00:39:42;;;;;;;;;;;;;;;-4.68;100.00;96553.09;1030798;28;20390;-71
2022/03/02 00:40:12;;;;;;;;;;;;;;;-4.69;100.00;96554.06;1031794;28;19953;-72
2022/03/02 00:40:43;;;;;;;;;;;;;;;-4.69;100.00;96553.22;1031405;28;19913;-71
2022/03/02 00:41:13;;;;;;;;;;;;;;;-4.74;100.00;96548.56;1031326;28;19924;-71
2022/03/02 00:41:43;;;;;;;;;;;;;;;-4.76;100.00;96551.28;1031562;28;20577;-71
2022/03/02 00:42:14;;;;;;;;;;;;;;;-4.70;100.00;96547.31;1031483;28;19919;-71
2022/03/02 00:42:44;;;;;;;;;;;;;;;-4.72;100.00;96549.22;1031282;28;19922;-71
2022/03/02 00:43:14;;;;;;;;;;;;;;;-4.70;100.00;96542.19;1027315;28;20008;-71
2022/03/02 00:43:48;;;;;;;;;;;;;;;-4.69;100.00;96548.94;1027634;28;19918;-70
2022/03/02 00:44:18;;;;;;;;;;;;;;;-4.67;100.00;96547.00;1028214;28;19992;-70
2022/03/02 00:44:49;;;;;;;;;;;;;;;-4.70;100.00;96554.97;1023813;28;20456;-71
2022/03/02 00:45:19;;;;;;;;;;;;;;;-4.69;100.00;96548.94;1027390;28;19922;-70
2022/03/02 00:45:49;;;;;;;;;;;;;;;-4.65;100.00;96552.00;1027407;28;20000;-71
2022/03/02 00:46:20;;;;;;;;;;;;;;;-4.63;100.00;96550.06;1027456;28;20065;-73
2022/03/02 00:46:50;;;;;;;;;;;;;;;-4.60;100.00;96547.22;1035330;28;19925;-73
2022/03/02 00:47:21;;;;;;;;;;;;;;;-4.58;100.00;96550.44;1035506;28;20004;-71
2022/03/02 00:47:51;;;;;;;;;;;;;;;-4.56;100.00;96548.53;1035467;28;20421;-69
2022/03/02 00:48:22;;;;;;;;;;;;;;;-4.57;100.00;96552.84;1035538;28;19922;-72
2022/03/02 00:48:52;;;;;;;;;;;;;;;-4.60;100.00;96548.03;1035435;28;19924;-72
2022/03/02 00:49:26;;;;;;;;;;;;;;;-4.57;100.00;96546.94;1027315;28;20768;-69
2022/03/02 00:49:57;;;;;;;;;;;;;;;-4.60;100.00;96548.03;1027050;28;19918;-72
2022/03/02 00:50:27;;;;;;;;;;;;;;;-4.61;100.00;96541.31;1027384;28;20017;-72
2022/03/02 00:50:58;;;;;;;;;;;;;;;-4.58;100.00;96545.34;1023894;28;20047;-71
2022/03/02 00:51:28;;;;;;;;;;;;;;;-4.61;100.00;96545.63;1027995;28;19976;-72
2022/03/02 00:51:59;;;;;;;;;;;;;;;-4.61;100.00;96540.50;1031491;28;19917;-71
2022/03/02 00:52:29;;;;;;;;;;;;;;;-4.63;100.00;96543.19;1031549;28;19917;-71
2022/03/02 00:53:02;;;;;;;;;;;;;;;-4.62;100.00;96539.72;1035688;28;19925;-73
2022/03/02 00:53:33;;;;;;;;;;;;;;;-4.62;100.00;96541.47;1035731;28;19922;-72
2022/03/02 00:54:03;;;;;;;;;;;;;;;-4.60;100.00;96548.03;1039543;28;19998;-73
2022/03/02 00:54:33;;;;;;;;;;;;;;;-4.62;100.00;96544.81;1039518;28;20003;-73
2022/03/02 00:55:04;;;;;;;;;;;;;;;-4.63;100.00;96553.44;1035468;28;20289;-72
2022/03/02 00:55:35;;;;;;;;;;;;;;;-4.65;100.00;96540.00;1035369;28;19917;-72
2022/03/02 00:56:05;;;;;;;;;;;;;;;-4.67;100.00;96539.34;1039543;28;19905;-73
2022/03/02 00:56:35;;;;;;;;;;;;;;;-4.68;100.00;96545.41;1035250;28;20383;-70
2022/03/02 00:57:06;;;;;;;;;;;;;;;-4.75;100.00;96536.72;1039687;28;19928;-73
2022/03/02 00:57:36;;;;;;;;;;;;;;;-4.79;100.00;96543.09;1039251;28;19921;-71
2022/03/02 00:58:06;;;;;;;;;;;;;;;-4.80;100.00;96541.47;1039352;28;19998;-71
2022/03/02 00:58:37;;;;;;;;;;;;;;;-4.82;100.00;96548.50;1035237;28;19925;-71
2022/03/02 00:59:07;;;;;;;;;;;;;;;-4.85;100.00;96543.66;1039489;28;19940;-73
2022/03/02 00:59:37;;;;;;;;;;;;;;;-4.86;100.00;96542.88;1038733;28;20048;-72
2022/03/02 01:00:08;;;;;;;;;;;;;;;-4.88;100.00;96538.84;1032026;28;20376;-72
2022/03/02 01:00:38;;;;;;;;;;;;;;;-4.90;100.00;96540.72;1027255;28;19926;-71
2022/03/02 01:01:09;;;;;;;;;;;;;;;-4.88;100.00;96549.88;1027382;28;19918;-73
2022/03/02 01:01:39;;;;;;;;;;;;;;;-4.91;100.00;96544.25;1028636;28;20388;-71
2022/03/02 01:02:09;;;;;;;;;;;;;;;-4.91;100.00;96536.56;1027298;28;19918;-71
2022/03/02 01:02:40;;;;;;;;;;;;;;;-4.93;100.00;96538.47;1023205;29;19925;-70
2022/03/02 01:03:10;;;;;;;;;;;;;;;-4.91;100.00;96544.25;1027158;28;19918;-72
2022/03/02 01:03:40;;;;;;;;;;;;;;;-4.90;100.00;96540.72;1031252;28;19929;-71
2022/03/02 01:04:13;;;;;;;;;;;;;;;-4.91;100.00;96545.03;1027195;28;19929;-71
2022/03/02 01:04:43;;;;;;;;;;;;;;;-4.90;100.00;96544.09;1027450;28;19922;-71
2022/03/02 01:05:14;;;;;;;;;;;;;;;-4.93;100.00;96546.13;1034383;28;19928;-71
2022/03/02 01:05:44;;;;;;;;;;;;;;;-4.95;100.00;96543.72;1032143;28;20753;-72
2022/03/02 01:06:15;;;;;;;;;;;;;;;-4.94;100.00;96547.91;1042180;28;19924;-70
2022/03/02 01:06:45;;;;;;;;;;;;;;;-4.93;100.00;96551.25;1041519;28;19924;-71
2022/03/02 01:07:16;;;;;;;;;;;;;;;-4.98;100.00;96547.38;1035515;28;19918;-72
2022/03/02 01:07:48;;;;;;;;;;;;;;;-4.97;100.00;96548.97;1035672;28;19928;-73
2022/03/02 01:08:18;;;;;;;;;;;;;;;-4.96;100.00;96549.81;1031804;28;19937;-70
2022/03/02 01:08:50;;;;;;;;;;;;;;;-5.00;100.00;96544.19;1040060;28;19928;-69
2022/03/02 01:09:20;;;;;;;;;;;;;;;-4.97;100.00;96546.41;1031713;28;20020;-70
2022/03/02 01:09:50;;;;;;;;;;;;;;;-5.01;100.00;96550.22;1031039;28;19953;-72
2022/03/02 01:10:24;;;;;;;;;;;;;;;-4.98;100.00;96544.81;1031112;28;19926;-70
2022/03/02 01:10:54;;;;;;;;;;;;;;;-5.00;100.00;96548.47;1031295;28;20391;-70
2022/03/02 01:11:27;;;;;;;;;;;;;;;-5.00;100.00;96546.75;1031758;28;19944;-70
2022/03/02 01:11:58;;;;;;;;;;;;;;;-4.97;100.00;96543.06;1035935;28;19918;-71
2022/03/02 01:12:28;;;;;;;;;;;;;;;-4.97;100.00;96546.41;1039997;28;19917;-71
2022/03/02 01:12:58;;;;;;;;;;;;;;;-4.99;100.00;96548.34;1039500;28;20499;-70
2022/03/02 01:13:29;;;;;;;;;;;;;;;-4.99;100.00;96543.22;1035184;28;19917;-72
2022/03/02 01:13:59;;;;;;;;;;;;;;;-5.02;100.00;96538.41;1031313;28;19914;-71
2022/03/02 01:14:29;;;;;;;;;;;;;;;-4.99;100.00;96539.88;1031080;28;20062;-72
2022/03/02 01:15:00;;;;;;;;;;;;;;;-5.00;100.00;96540.78;1035925;28;19944;-71
2022/03/02 01:15:30;;;;;;;;;;;;;;;-5.06;100.00;96539.63;1039879;28;19924;-72
2022/03/02 01:16:00;;;;;;;;;;;;;;;-5.10;100.00;96534.94;1040145;28;19917;-72
2022/03/02 01:16:30;;;;;;;;;;;;;;;-5.07;100.00;96539.78;1031383;28;19918;-69
2022/03/02 01:17:01;;;;;;;;;;;;;;;-5.09;100.00;96541.69;1027566;28;19930;-71
2022/03/02 01:17:31;;;;;;;;;;;;;;;-5.07;100.00;96534.66;1027611;28;20363;-71
2022/03/02 01:18:01;;;;;;;;;;;;;;;-5.09;100.00;96536.56;1027748;28;19918;-72
2022/03/02 01:18:35;;;;;;;;;;;;;;;-5.05;100.00;96537.88;1035857;28;19921;-72
2022/03/02 01:19:05;;;;;;;;;;;;;;;-5.03;100.00;96536.78;1040209;28;20292;-73
2022/03/02 01:19:37;;;;;;;;;;;;;;;-5.05;100.00;96532.75;1043102;28;19917;-71
2022/03/02 01:20:07;;;;;;;;;;;;;;;-5.04;100.00;96529.25;1039655;28;19917;-70
2022/03/02 01:20:38;;;;;;;;;;;;;;;-5.01;100.00;96539.19;1034956;28;20348;-71
2022/03/02 01:21:08;;;;;;;;;;;;;;;-5.00;100.00;96536.50;1031537;28;20016;-70
2022/03/02 01:21:38;;;;;;;;;;;;;;;-4.99;100.00;96533.00;1031342;28;19922;-72
2022/03/02 01:22:09;;;;;;;;;;;;;;;-5.00;100.00;96531.38;1035347;28;19925;-72
2022/03/02 01:22:39;;;;;;;;;;;;;;;-5.01;100.00;96534.06;1043187;28;19917;-71
2022/03/02 01:23:12;;;;;;;;;;;;;;;-5.06;100.00;96526.84;1043637;28;19921;-72
2022/03/02 01:23:42;;;;;;;;;;;;;;;-5.03;100.00;96531.69;1039355;28;19921;-73
2022/03/02 01:24:13;;;;;;;;;;;;;;;-5.01;100.00;96529.75;1037695;28;19913;-72
2022/03/02 01:24:43;;;;;;;;;;;;;;;-4.99;100.00;96521.94;1035439;28;19926;-71
2022/03/02 01:25:14;;;;;;;;;;;;;;;-5.01;100.00;96529.75;1035446;28;19959;-72
2022/03/02 01:25:44;;;;;;;;;;;;;;;-5.01;100.00;96523.84;1035325;28;19991;-69
2022/03/02 01:26:14;;;;;;;;;;;;;;;-5.05;100.00;96518.22;1031250;28;19921;-72
2022/03/02 01:26:46;;;;;;;;;;;;;;;-5.08;100.00;96518.50;1035176;28;19991;-71
2022/03/02 01:27:16;;;;;;;;;;;;;;;-5.08;100.00;96512.59;1035415;28;19918;-71
2022/03/02 01:27:46;;;;;;;;;;;;;;;-5.10;100.00;96522.16;1035584;28;19923;-70
2022/03/02 01:28:17;;;;;;;;;;;;;;;-5.12;100.00;96518.94;1043587;28;19928;-71
2022/03/02 01:28:47;;;;;;;;;;;;;;;-5.12;100.00;96517.19;1035451;28;19917;-70
2022/03/02 01:29:18;;;;;;;;;;;;;;;-5.09;100.00;96514.34;1030906;28;19918;-70
2022/03/02 01:29:48;;;;;;;;;;;;;;;-5.08;100.00;96515.94;1026506;28;19952;-71
2022/03/02 01:30:19;;;;;;;;;;;;;;;-5.10;100.00;96510.16;1023490;28;20016;-72
2022/03/02 01:30:49;;;;;;;;;;;;;;;-5.11;100.00;96507.75;1031544;28;20372;-73
2022/03/02 01:31:21;;;;;;;;;;;;;;;-5.12;100.00;96509.50;1036123;28;19917;-71
2022/03/02 01:31:51;;;;;;;;;;;;;;;-5.12;100.00;96506.16;1040282;28;19924;-73
2022/03/02 01:32:22;;;;;;;;;;;;;;;-5.14;100.00;96498.63;1040087;28;19928;-71
2022/03/02 01:32:52;;;;;;;;;;;;;;;-5.10;100.00;96499.13;1029274;28;19930;-71
2022/03/02 01:33:22;;;;;;;;;;;;;;;-5.09;100.00;96498.19;1031596;28;19925;-72
2022/03/02 01:33:53;;;;;;;;;;;;;;;-5.09;100.00;96499.00;1031523;28;19917;-71
2022/03/02 01:34:23;;;;;;;;;;;;;;;-5.08;100.00;96497.25;1031436;28;20680;-72
2022/03/02 01:34:53;;;;;;;;;;;;;;;-5.06;100.00;96496.16;1039568;28;20520;-72
2022/03/02 01:35:24;;;;;;;;;;;;;;;-5.25;100.00;96461.28;1039104;28;19921;-71
2022/03/02 01:35:55;;;;;;;;;;;;;;;-4.99;100.00;96486.94;1042953;28;19917;-71
2022/03/02 01:36:25;;;;;;;;;;;;;;;-4.99;100.00;96497.16;1043400;28;19923;-72
2022/03/02 01:36:55;;;;;;;;;;;;;;;-4.98;100.00;96493.66;1035498;28;20742;-68
2022/03/02 01:37:28;;;;;;;;;;;;;;;-4.96;100.00;96490.97;1031398;28;20065;-72
2022/03/02 01:37:58;;;;;;;;;;;;;;;-4.99;100.00;96486.94;1031682;28;20418;-73
2022/03/02 01:38:29;;;;;;;;;;;;;;;-4.95;100.00;96486.63;1035819;28;19928;-72
2022/03/02 01:38:59;;;;;;;;;;;;;;;-4.95;100.00;96492.56;1036050;28;19939;-71
2022/03/02 01:39:29;;;;;;;;;;;;;;;-4.93;100.00;96487.28;1038917;28;20047;-69
2022/03/02 01:39:59;;;;;;;;;;;;;;;-4.92;100.00;96487.16;1035323;28;19928;-73
2022/03/02 01:40:30;;;;;;;;;;;;;;;-4.90;100.00;96490.34;1027414;28;20376;-73
2022/03/02 01:41:00;;;;;;;;;;;;;;;-4.88;100.00;96485.09;1031682;28;19929;-73
2022/03/02 01:41:30;;;;;;;;;;;;;;;-4.88;100.00;96487.66;1034991;28;19928;-72
2022/03/02 01:42:01;;;;;;;;;;;;;;;-4.89;100.00;96483.50;1039408;28;20668;-71
2022/03/02 01:42:33;;;;;;;;;;;;;;;-4.92;100.00;96476.09;1039266;28;20003;-72
2022/03/02 01:43:03;;;;;;;;;;;;;;;-4.92;100.00;96478.66;1037510;28;19920;-72
2022/03/02 01:43:34;;;;;;;;;;;;;;;-4.89;100.00;96491.16;1035095;28;19924;-72
2022/03/02 01:44:04;;;;;;;;;;;;;;;-4.88;100.00;96477.41;1031249;28;19914;-69
2022/03/02 01:44:34;;;;;;;;;;;;;;;-4.88;100.00;96477.41;1034959;28;19913;-70
2022/03/02 01:45:05;;;;;;;;;;;;;;;-4.86;100.00;96480.63;1035266;28;20391;-73
2022/03/02 01:45:35;;;;;;;;;;;;;;;-4.86;100.00;96475.50;1031185;28;20374;-72
2022/03/02 01:46:05;;;;;;;;;;;;;;;-4.85;100.00;96477.13;1031353;28;19921;-69
2022/03/02 01:46:36;;;;;;;;;;;;;;;-4.87;100.00;96479.03;1031044;28;19985;-71
2022/03/02 01:47:06;;;;;;;;;;;;;;;-4.90;100.00;96484.44;1039419;28;19923;-72
2022/03/02 01:47:36;;;;;;;;;;;;;;;-4.93;100.00;96488.06;1043265;28;20321;-72
2022/03/02 01:48:06;;;;;;;;;;;;;;;-4.94;100.00;96472.88;1043181;28;19912;-71
2022/03/02 01:48:37;;;;;;;;;;;;;;;-4.91;100.00;96482.81;1039201;28;19986;-73
2022/03/02 01:49:07;;;;;;;;;;;;;;;-4.94;100.00;96478.00;1035340;28;19928;-71
2022/03/02 01:49:37;;;;;;;;;;;;;;;-4.93;100.00;96477.84;1030287;28;19921;-72
2022/03/02 01:50:08;;;;;;;;;;;;;;;-4.90;100.00;96484.44;1035080;28;19921;-72
2022/03/02 01:50:39;;;;;;;;;;;;;;;-4.90;100.00;96489.53;1035465;28;20012;-73
2022/03/02 01:51:09;;;;;;;;;;;;;;;-4.91;100.00;96482.81;1035167;28;19917;-71
2022/03/02 01:51:39;;;;;;;;;;;;;;;-4.91;100.00;96488.75;1035096;28;20672;-71
2022/03/02 01:52:10;;;;;;;;;;;;;;;-4.91;100.00;96482.81;1039449;28;20552;-71
2022/03/02 01:52:40;;;;;;;;;;;;;;;-4.90;100.00;96485.22;1039098;28;19921;-72
2022/03/02 01:53:10;;;;;;;;;;;;;;;-4.88;100.00;96488.47;1039342;28;19917;-72
2022/03/02 01:53:41;;;;;;;;;;;;;;;-4.89;100.00;96491.16;1039921;28;19928;-73
2022/03/02 01:54:11;;;;;;;;;;;;;;;-4.90;100.00;96492.09;1038180;28;19924;-73
2022/03/02 01:54:41;;;;;;;;;;;;;;;-4.92;100.00;96487.16;1037964;28;19976;-72
2022/03/02 01:55:12;;;;;;;;;;;;;;;-4.92;100.00;96491.47;1037640;28;20371;-73
2022/03/02 01:55:42;;;;;;;;;;;;;;;-4.93;100.00;96490.63;1037873;28;19913;-72
2022/03/02 01:56:13;;;;;;;;;;;;;;;-4.93;100.00;96494.94;1038171;28;19925;-73
2022/03/02 01:56:43;;;;;;;;;;;;;;;-4.97;100.00;96490.13;1036412;28;19953;-72
2022/03/02 01:57:14;;;;;;;;;;;;;;;-4.96;100.00;96493.50;1041668;28;19924;-71
2022/03/02 01:57:44;;;;;;;;;;;;;;;-4.95;100.00;96492.56;1042135;28;19917;-70
2022/03/02 01:58:14;;;;;;;;;;;;;;;-4.93;100.00;96500.06;1037690;28;20118;-71
2022/03/02 01:58:45;;;;;;;;;;;;;;;-4.99;100.00;96496.38;1038168;28;19924;-73
2022/03/02 01:59:15;;;;;;;;;;;;;;;-4.98;100.00;96503.88;1037136;28;20489;-70
2022/03/02 01:59:45;;;;;;;;;;;;;;;-4.98;100.00;96500.53;1031102;28;19918;-73
2022/03/02 02:00:18;;;;;;;;;;;;;;;-4.98;100.00;96497.97;1028081;28;19922;-71
2022/03/02 02:00:48;;;;;;;;;;;;;;;-4.99;100.00;96499.72;1032112;28;19920;-69
2022/03/02 02:01:19;;;;;;;;;;;;;;;-5.00;100.00;96500.69;1036091;28;19928;-73
2022/03/02 02:01:49;;;;;;;;;;;;;;;-5.04;100.00;96501.09;1039065;28;20305;-70
2022/03/02 02:02:20;;;;;;;;;;;;;;;-5.06;100.00;96498.72;1039728;28;19921;-71
2022/03/02 02:02:50;;;;;;;;;;;;;;;-5.05;100.00;96495.19;1031702;28;19983;-71
2022/03/02 02:03:23;;;;;;;;;;;;;;;-5.07;100.00;96502.19;1032606;28;19913;-70
2022/03/02 02:03:53;;;;;;;;;;;;;;;-5.12;100.00;96496.72;1035136;28;19968;-72
2022/03/02 02:04:24;;;;;;;;;;;;;;;-5.11;100.00;96493.22;1038426;28;20818;-72
2022/03/02 02:04:54;;;;;;;;;;;;;;;-5.12;100.00;96494.16;1043658;28;20453;-71
2022/03/02 02:05:24;;;;;;;;;;;;;;;-5.15;100.00;96496.22;1039820;28;19920;-71
2022/03/02 02:05:55;;;;;;;;;;;;;;;-5.12;100.00;96493.38;1035717;28;19918;-71
2022/03/02 02:06:25;;;;;;;;;;;;;;;-5.14;100.00;96488.38;1031655;28;19921;-71
2022/03/02 02:06:55;;;;;;;;;;;;;;;-5.14;100.00;96488.38;1035650;28;19917;-71
2022/03/02 02:07:29;;;;;;;;;;;;;;;-5.16;100.00;96490.28;1040587;28;20003;-72
2022/03/02 02:07:59;;;;;;;;;;;;;;;-5.18;100.00;96484.50;1044336;28;19919;-71
2022/03/02 02:08:29;;;;;;;;;;;;;;;-5.18;100.00;96487.06;1044027;28;20306;-70
2022/03/02 02:09:00;;;;;;;;;;;;;;;-5.19;100.00;96482.91;1039883;28;19984;-73
2022/03/02 02:09:30;;;;;;;;;;;;;;;-5.20;100.00;96476.16;1039248;28;19916;-71
2022/03/02 02:10:00;;;;;;;;;;;;;;;-5.24;100.00;96480.78;1035655;28;19917;-70
2022/03/02 02:10:30;;;;;;;;;;;;;;;-5.25;100.00;96475.81;1035644;28;20577;-70
2022/03/02 02:11:04;;;;;;;;;;;;;;;-5.26;100.00;96474.22;1035837;28;20375;-70
2022/03/02 02:11:34;;;;;;;;;;;;;;;-5.23;100.00;96472.16;1036175;28;20419;-73
2022/03/02 02:12:04;;;;;;;;;;;;;;;-5.24;100.00;96468.00;1035950;28;19924;-71
2022/03/02 02:12:35;;;;;;;;;;;;;;;-5.26;100.00;96472.47;1040059;28;19917;-72
2022/03/02 02:13:05;;;;;;;;;;;;;;;-5.27;100.00;96472.59;1039981;28;19917;-70
2022/03/02 02:13:36;;;;;;;;;;;;;;;-5.26;100.00;96469.09;1035599;28;19910;-73
2022/03/02 02:14:06;;;;;;;;;;;;;;;-5.28;100.00;96466.69;1035909;28;19918;-71
2022/03/02 02:14:36;;;;;;;;;;;;;;;-5.27;100.00;96463.16;1031528;28;20299;-71
2022/03/02 02:15:07;;;;;;;;;;;;;;;-5.30;100.00;96457.53;1035717;28;19921;-71
2022/03/02 02:15:37;;;;;;;;;;;;;;;-5.29;100.00;96456.59;1035799;28;19906;-72
2022/03/02 02:16:23;;;;;;;;;;;;;;;-5.32;100.00;96455.13;1042064;28;19913;-72
2022/03/02 02:16:54;;;;;;;;;;;;;;;-5.32;100.00;96459.44;1039382;28;20406;-73
2022/03/02 02:17:24;;;;;;;;;;;;;;;-5.35;100.00;96457.97;1038014;28;19941;-70
2022/03/02 02:17:55;;;;;;;;;;;;;;;-5.35;100.00;96452.88;1035706;28;19920;-70
2022/03/02 02:18:26;;;;;;;;;;;;;;;-5.34;100.00;96451.09;1031915;28;19910;-71
2022/03/02 02:18:56;;;;;;;;;;;;;;;-5.34;100.00;96451.91;1027374;28;20479;-72
2022/03/02 02:19:26;;;;;;;;;;;;;;;-5.36;100.00;96447.91;1031453;28;19917;-71
2022/03/02 02:19:57;;;;;;;;;;;;;;;-5.36;100.00;96451.28;1031797;28;19949;-71
2022/03/02 02:20:27;;;;;;;;;;;;;;;-5.34;100.00;96448.56;1035598;28;20473;-69
2022/03/02 02:21:10;;;;;;;;;;;;;;;-5.33;100.00;96448.41;1035538;28;20533;-71
2022/03/02 02:21:41;;;;;;;;;;;;;;;-5.30;100.00;96452.41;1033493;28;19914;-70
2022/03/02 02:22:11;;;;;;;;;;;;;;;-5.31;100.00;96450.81;1027395;28;19918;-70
2022/03/02 02:22:46;;;;;;;;;;;;;;;-5.29;100.00;96452.28;1027523;28;20017;-71
2022/03/02 02:23:19;;;;;;;;;;;;;;;-5.28;100.00;96440.31;1027481;28;19918;-70
2022/03/02 02:23:53;;;;;;;;;;;;;;;-5.26;100.00;96438.41;1031968;28;19918;-71
2022/03/02 02:24:24;;;;;;;;;;;;;;;-5.26;100.00;96435.84;1037066;28;19917;-70
2022/03/02 02:24:54;;;;;;;;;;;;;;;-5.27;100.00;96439.34;1036504;28;19921;-71
2022/03/02 02:25:25;;;;;;;;;;;;;;;-5.29;100.00;96439.50;1031560;28;20303;-71
2022/03/02 02:25:55;;;;;;;;;;;;;;;-5.27;100.00;96447.00;1031742;28;19913;-71
2022/03/02 02:26:26;;;;;;;;;;;;;;;-5.28;100.00;96435.97;1031895;28;19918;-70
2022/03/02 02:26:56;;;;;;;;;;;;;;;-5.28;100.00;96446.22;1035943;28;19918;-70
2022/03/02 02:27:32;;;;;;;;;;;;;;;-5.30;100.00;96439.63;1035380;28;19964;-70
2022/03/02 02:28:03;;;;;;;;;;;;;;;-5.31;100.00;96445.72;1032592;28;20395;-71
2022/03/02 02:28:33;;;;;;;;;;;;;;;-5.30;100.00;96437.06;1035694;28;20402;-70
2022/03/02 02:29:04;;;;;;;;;;;;;;;-5.32;100.00;96444.91;1036535;28;20362;-71
2022/03/02 02:29:34;;;;;;;;;;;;;;;-5.31;100.00;96432.91;1038900;28;19996;-70
2022/03/02 02:30:05;;;;;;;;;;;;;;;-5.30;100.00;96444.75;1039706;28;19914;-72
2022/03/02 02:30:35;;;;;;;;;;;;;;;-5.32;100.00;96449.22;1027462;28;19918;-72
2022/03/02 02:31:05;;;;;;;;;;;;;;;-5.33;100.00;96442.47;1023614;28;19915;-70
2022/03/02 02:31:36;;;;;;;;;;;;;;;-5.34;100.00;96440.88;1027389;28;19910;-71
2022/03/02 02:32:06;;;;;;;;;;;;;;;-5.34;100.00;96446.00;1035643;28;19920;-69
2022/03/02 02:32:37;;;;;;;;;;;;;;;-5.34;100.00;96446.78;1035500;28;20413;-71
2022/03/02 02:33:07;;;;;;;;;;;;;;;-5.33;100.00;96452.72;1035824;28;19929;-69
2022/03/02 02:33:37;;;;;;;;;;;;;;;-5.35;100.00;96452.06;1031508;28;19914;-70
2022/03/02 02:34:07;;;;;;;;;;;;;;;-5.38;100.00;96440.38;1035812;28;19909;-70
2022/03/02 02:34:38;;;;;;;;;;;;;;;-5.37;100.00;96441.97;1039591;28;19913;-71
2022/03/02 02:35:08;;;;;;;;;;;;;;;-5.38;100.00;96442.13;1035901;28;20200;-71
2022/03/02 02:35:42;;;;;;;;;;;;;;;-5.37;100.00;96443.72;1035524;28;20477;-70
2022/03/02 02:36:12;;;;;;;;;;;;;;;-5.36;100.00;96448.72;1035604;28;19905;-72
2022/03/02 02:36:42;;;;;;;;;;;;;;;-5.36;100.00;96447.91;1032108;28;20065;-72
2022/03/02 02:37:13;;;;;;;;;;;;;;;-5.35;100.00;96444.41;1031939;28;20415;-71
2022/03/02 02:37:43;;;;;;;;;;;;;;;-5.40;100.00;96441.47;1035463;28;20004;-73